KPBF/PBF METAR and TAF weather

Enter ICAO airport designator
Station Type Date Time Source
KPBF METAR 2019/06/18 23:53 UTC NOAA

KPBF 182353Z AUTO 25005KT 10SM CLR 30/18 A2982 RMK AO2 SLP094 T03000183 10311 20283 56011


Station Type Date Time Source
KPBF Decoded METAR 2019/06/18 23:53 UTC NOAA

PINE BLUFF GRIDER FIELD, AR, United States (KPBF) 34-11N 091-56W 62M
Jun 18, 2019 - 07:53 PM EDT / 2019.06.18 2353 UTC
Wind: from the WSW (250 degrees) at 6 MPH (5 KT):0
Visibility: 10 mile(s):0
Sky conditions: clear
Temperature: 86.0 F (30.0 C)
Dew Point: 64.9 F (18.3 C)
Relative Humidity: 49%
Pressure (altimeter): 29.82 in. Hg (1009 hPa)
Pressure tendency: 0.03 inches (1.1 hPa) lower than three hours ago
ob: KPBF 182353Z AUTO 25005KT 10SM CLR 30/18 A2982 RMK AO2 SLP094 T03000183 10311 20283 56011
cycle: 0

Station Type Date Time Source
KPBF TAF 2019/06/18 18:39 UTC NOAA

TAF KPBF 181736Z 1818/1918 30007KT P6SM SCT035 BKN050
FM190000 VRB03KT P6SM SCT100 BKN250
FM191200 23006KT P6SM BKN150

Example: see airport list